sensor_id;sensor_type;location;lat;lon;timestamp;P1;durP1;ratioP1;P2;durP2;ratioP2
39098;SDS011;24844;52.380;7.018;2022-08-21T00:02:26;10.50;;;4.90;;
39098;SDS011;24844;52.380;7.018;2022-08-21T00:04:53;10.23;;;5.47;;
39098;SDS011;24844;52.380;7.018;2022-08-21T00:07:19;10.70;;;5.70;;
39098;SDS011;24844;52.380;7.018;2022-08-21T00:09:46;9.25;;;6.53;;
39098;SDS011;24844;52.380;7.018;2022-08-21T00:12:11;10.50;;;5.85;;
39098;SDS011;24844;52.380;7.018;2022-08-21T00:14:37;10.27;;;5.40;;
39098;SDS011;24844;52.380;7.018;2022-08-21T00:17:03;11.85;;;5.88;;
39098;SDS011;24844;52.380;7.018;2022-08-21T00:19:30;11.30;;;6.13;;
39098;SDS011;24844;52.380;7.018;2022-08-21T00:21:56;13.35;;;6.60;;
39098;SDS011;24844;52.380;7.018;2022-08-21T00:24:22;7.82;;;4.68;;
39098;SDS011;24844;52.380;7.018;2022-08-21T00:26:48;14.77;;;6.07;;
39098;SDS011;24844;52.380;7.018;2022-08-21T00:29:14;10.60;;;5.88;;
39098;SDS011;24844;52.380;7.018;2022-08-21T00:31:41;10.43;;;5.40;;
39098;SDS011;24844;52.380;7.018;2022-08-21T00:34:08;11.48;;;5.53;;
39098;SDS011;24844;52.380;7.018;2022-08-21T00:36:36;9.02;;;5.40;;
39098;SDS011;24844;52.380;7.018;2022-08-21T00:39:03;8.57;;;5.15;;
39098;SDS011;24844;52.380;7.018;2022-08-21T00:41:31;11.38;;;6.05;;
39098;SDS011;24844;52.380;7.018;2022-08-21T00:43:57;10.48;;;5.55;;
39098;SDS011;24844;52.380;7.018;2022-08-21T00:46:23;12.90;;;5.57;;
39098;SDS011;24844;52.380;7.018;2022-08-21T00:48:49;13.25;;;6.13;;
39098;SDS011;24844;52.380;7.018;2022-08-21T00:51:20;9.38;;;6.25;;
39098;SDS011;24844;52.380;7.018;2022-08-21T00:53:54;9.00;;;6.47;;
39098;SDS011;24844;52.380;7.018;2022-08-21T00:56:23;10.00;;;5.85;;
39098;SDS011;24844;52.380;7.018;2022-08-21T00:58:49;10.35;;;6.15;;
39098;SDS011;24844;52.380;7.018;2022-08-21T01:01:16;12.82;;;6.38;;
39098;SDS011;24844;52.380;7.018;2022-08-21T01:03:42;13.45;;;6.45;;
39098;SDS011;24844;52.380;7.018;2022-08-21T01:06:08;12.15;;;6.53;;
39098;SDS011;24844;52.380;7.018;2022-08-21T01:08:34;13.63;;;6.47;;
39098;SDS011;24844;52.380;7.018;2022-08-21T01:11:01;11.35;;;6.60;;
39098;SDS011;24844;52.380;7.018;2022-08-21T01:13:28;11.05;;;6.55;;
39098;SDS011;24844;52.380;7.018;2022-08-21T01:18:24;12.55;;;6.55;;
39098;SDS011;24844;52.380;7.018;2022-08-21T01:23:34;10.82;;;6.35;;
39098;SDS011;24844;52.380;7.018;2022-08-21T01:28:28;11.88;;;6.15;;
39098;SDS011;24844;52.380;7.018;2022-08-21T01:30:58;13.02;;;6.93;;
39098;SDS011;24844;52.380;7.018;2022-08-21T01:33:26;15.13;;;7.85;;
39098;SDS011;24844;52.380;7.018;2022-08-21T01:35:52;10.07;;;6.90;;
39098;SDS011;24844;52.380;7.018;2022-08-21T01:38:17;18.58;;;7.43;;
39098;SDS011;24844;52.380;7.018;2022-08-21T01:40:43;10.75;;;6.70;;
39098;SDS011;24844;52.380;7.018;2022-08-21T01:43:09;11.77;;;7.00;;
39098;SDS011;24844;52.380;7.018;2022-08-21T01:45:34;15.68;;;7.57;;
39098;SDS011;24844;52.380;7.018;2022-08-21T01:48:00;8.07;;;6.35;;
39098;SDS011;24844;52.380;7.018;2022-08-21T01:50:25;12.32;;;7.80;;
39098;SDS011;24844;52.380;7.018;2022-08-21T01:52:51;15.13;;;7.50;;
39098;SDS011;24844;52.380;7.018;2022-08-21T01:55:17;15.90;;;8.35;;
39098;SDS011;24844;52.380;7.018;2022-08-21T01:57:44;13.25;;;7.97;;
39098;SDS011;24844;52.380;7.018;2022-08-21T02:00:11;14.82;;;7.78;;
39098;SDS011;24844;52.380;7.018;2022-08-21T02:02:39;13.48;;;7.43;;
39098;SDS011;24844;52.380;7.018;2022-08-21T02:05:06;13.65;;;7.15;;
39098;SDS011;24844;52.380;7.018;2022-08-21T02:07:42;13.77;;;8.05;;
39098;SDS011;24844;52.380;7.018;2022-08-21T02:10:10;13.27;;;7.68;;
39098;SDS011;24844;52.380;7.018;2022-08-21T02:12:37;15.25;;;8.05;;
39098;SDS011;24844;52.380;7.018;2022-08-21T02:15:03;14.32;;;8.27;;
39098;SDS011;24844;52.380;7.018;2022-08-21T02:17:38;12.53;;;8.17;;
39098;SDS011;24844;52.380;7.018;2022-08-21T02:20:06;14.90;;;8.05;;
39098;SDS011;24844;52.380;7.018;2022-08-21T02:22:32;13.38;;;7.80;;
39098;SDS011;24844;52.380;7.018;2022-08-21T02:24:57;12.73;;;8.38;;
39098;SDS011;24844;52.380;7.018;2022-08-21T02:27:23;15.60;;;8.07;;
39098;SDS011;24844;52.380;7.018;2022-08-21T02:29:49;12.43;;;8.00;;
39098;SDS011;24844;52.380;7.018;2022-08-21T02:32:15;13.00;;;7.47;;
39098;SDS011;24844;52.380;7.018;2022-08-21T02:34:40;13.75;;;8.02;;
39098;SDS011;24844;52.380;7.018;2022-08-21T02:37:06;15.55;;;8.30;;
39098;SDS011;24844;52.380;7.018;2022-08-21T02:39:32;11.93;;;7.20;;
39098;SDS011;24844;52.380;7.018;2022-08-21T02:41:57;15.68;;;8.63;;
39098;SDS011;24844;52.380;7.018;2022-08-21T02:44:23;13.38;;;8.27;;
39098;SDS011;24844;52.380;7.018;2022-08-21T02:46:48;12.20;;;8.02;;
39098;SDS011;24844;52.380;7.018;2022-08-21T02:49:14;17.20;;;9.02;;
39098;SDS011;24844;52.380;7.018;2022-08-21T02:51:39;18.42;;;9.05;;
39098;SDS011;24844;52.380;7.018;2022-08-21T02:54:05;17.20;;;8.93;;
39098;SDS011;24844;52.380;7.018;2022-08-21T02:56:31;12.05;;;8.30;;
39098;SDS011;24844;52.380;7.018;2022-08-21T02:58:57;14.70;;;8.77;;
39098;SDS011;24844;52.380;7.018;2022-08-21T03:01:22;15.02;;;9.00;;
39098;SDS011;24844;52.380;7.018;2022-08-21T03:03:48;14.00;;;8.30;;
39098;SDS011;24844;52.380;7.018;2022-08-21T03:06:17;14.35;;;8.63;;
39098;SDS011;24844;52.380;7.018;2022-08-21T03:08:44;13.50;;;8.88;;
39098;SDS011;24844;52.380;7.018;2022-08-21T03:11:11;16.42;;;8.57;;
39098;SDS011;24844;52.380;7.018;2022-08-21T03:13:37;9.75;;;7.93;;
39098;SDS011;24844;52.380;7.018;2022-08-21T03:16:04;9.93;;;8.25;;
39098;SDS011;24844;52.380;7.018;2022-08-21T03:18:29;11.38;;;8.80;;
39098;SDS011;24844;52.380;7.018;2022-08-21T03:20:55;17.58;;;9.00;;
39098;SDS011;24844;52.380;7.018;2022-08-21T03:23:21;13.57;;;8.15;;
39098;SDS011;24844;52.380;7.018;2022-08-21T03:25:47;14.00;;;9.02;;
39098;SDS011;24844;52.380;7.018;2022-08-21T03:28:18;16.67;;;8.27;;
39098;SDS011;24844;52.380;7.018;2022-08-21T03:30:47;16.40;;;8.40;;
39098;SDS011;24844;52.380;7.018;2022-08-21T03:33:14;15.23;;;8.02;;
39098;SDS011;24844;52.380;7.018;2022-08-21T03:35:41;12.00;;;8.43;;
39098;SDS011;24844;52.380;7.018;2022-08-21T03:38:07;10.45;;;8.75;;
39098;SDS011;24844;52.380;7.018;2022-08-21T03:40:33;14.60;;;9.07;;
39098;SDS011;24844;52.380;7.018;2022-08-21T03:42:59;12.30;;;8.20;;
39098;SDS011;24844;52.380;7.018;2022-08-21T03:45:24;12.88;;;8.32;;
39098;SDS011;24844;52.380;7.018;2022-08-21T03:47:57;13.68;;;8.85;;
39098;SDS011;24844;52.380;7.018;2022-08-21T03:50:25;10.98;;;7.60;;
39098;SDS011;24844;52.380;7.018;2022-08-21T03:52:52;14.77;;;7.70;;
39098;SDS011;24844;52.380;7.018;2022-08-21T03:55:18;12.55;;;7.65;;
39098;SDS011;24844;52.380;7.018;2022-08-21T03:57:44;13.75;;;8.13;;
39098;SDS011;24844;52.380;7.018;2022-08-21T04:00:09;12.77;;;8.13;;
39098;SDS011;24844;52.380;7.018;2022-08-21T04:02:37;11.73;;;8.77;;
39098;SDS011;24844;52.380;7.018;2022-08-21T04:05:06;10.65;;;8.13;;
39098;SDS011;24844;52.380;7.018;2022-08-21T04:07:32;11.80;;;7.85;;
39098;SDS011;24844;52.380;7.018;2022-08-21T04:09:58;12.73;;;8.23;;
39098;SDS011;24844;52.380;7.018;2022-08-21T04:12:23;9.40;;;7.65;;
39098;SDS011;24844;52.380;7.018;2022-08-21T04:14:49;10.50;;;7.18;;
39098;SDS011;24844;52.380;7.018;2022-08-21T04:19:44;7.95;;;6.97;;
39098;SDS011;24844;52.380;7.018;2022-08-21T04:22:10;13.63;;;8.02;;
39098;SDS011;24844;52.380;7.018;2022-08-21T04:24:36;12.75;;;9.07;;
39098;SDS011;24844;52.380;7.018;2022-08-21T04:27:01;10.18;;;7.97;;
39098;SDS011;24844;52.380;7.018;2022-08-21T04:29:27;14.63;;;9.30;;
39098;SDS011;24844;52.380;7.018;2022-08-21T04:31:52;9.73;;;7.82;;
39098;SDS011;24844;52.380;7.018;2022-08-21T04:34:18;11.57;;;8.95;;
39098;SDS011;24844;52.380;7.018;2022-08-21T04:36:44;11.20;;;9.15;;
39098;SDS011;24844;52.380;7.018;2022-08-21T04:39:09;8.90;;;7.35;;
39098;SDS011;24844;52.380;7.018;2022-08-21T04:41:35;14.50;;;9.00;;
39098;SDS011;24844;52.380;7.018;2022-08-21T04:44:01;11.82;;;8.80;;
39098;SDS011;24844;52.380;7.018;2022-08-21T04:46:27;11.65;;;7.90;;
39098;SDS011;24844;52.380;7.018;2022-08-21T04:48:53;13.88;;;8.88;;
39098;SDS011;24844;52.380;7.018;2022-08-21T04:51:20;10.57;;;8.40;;
39098;SDS011;24844;52.380;7.018;2022-08-21T04:53:50;8.73;;;6.90;;
39098;SDS011;24844;52.380;7.018;2022-08-21T04:56:22;12.35;;;7.80;;
39098;SDS011;24844;52.380;7.018;2022-08-21T04:58:52;12.40;;;7.47;;
39098;SDS011;24844;52.380;7.018;2022-08-21T05:01:21;12.00;;;7.32;;
39098;SDS011;24844;52.380;7.018;2022-08-21T05:03:50;9.30;;;6.75;;
39098;SDS011;24844;52.380;7.018;2022-08-21T05:06:20;8.68;;;5.90;;
39098;SDS011;24844;52.380;7.018;2022-08-21T05:08:47;8.80;;;5.95;;
39098;SDS011;24844;52.380;7.018;2022-08-21T05:11:14;7.80;;;5.87;;
39098;SDS011;24844;52.380;7.018;2022-08-21T05:13:40;7.13;;;5.22;;
39098;SDS011;24844;52.380;7.018;2022-08-21T05:16:06;8.38;;;5.40;;
39098;SDS011;24844;52.380;7.018;2022-08-21T05:18:32;11.45;;;5.47;;
39098;SDS011;24844;52.380;7.018;2022-08-21T05:20:58;6.15;;;5.18;;
39098;SDS011;24844;52.380;7.018;2022-08-21T05:23:23;7.90;;;4.85;;
39098;SDS011;24844;52.380;7.018;2022-08-21T05:25:49;7.68;;;5.63;;
39098;SDS011;24844;52.380;7.018;2022-08-21T05:28:16;8.50;;;5.70;;
39098;SDS011;24844;52.380;7.018;2022-08-21T05:30:42;10.75;;;5.53;;
39098;SDS011;24844;52.380;7.018;2022-08-21T05:33:08;10.00;;;6.10;;
39098;SDS011;24844;52.380;7.018;2022-08-21T05:35:34;12.52;;;6.43;;
39098;SDS011;24844;52.380;7.018;2022-08-21T05:38:01;9.57;;;6.07;;
39098;SDS011;24844;52.380;7.018;2022-08-21T05:40:27;11.45;;;6.53;;
39098;SDS011;24844;52.380;7.018;2022-08-21T05:42:54;10.82;;;6.70;;
39098;SDS011;24844;52.380;7.018;2022-08-21T05:45:20;13.23;;;6.75;;
39098;SDS011;24844;52.380;7.018;2022-08-21T05:47:52;10.18;;;5.90;;
39098;SDS011;24844;52.380;7.018;2022-08-21T05:50:17;9.52;;;6.22;;
39098;SDS011;24844;52.380;7.018;2022-08-21T05:52:44;9.82;;;6.70;;
39098;SDS011;24844;52.380;7.018;2022-08-21T05:55:09;11.48;;;7.72;;
39098;SDS011;24844;52.380;7.018;2022-08-21T05:57:35;8.60;;;6.45;;
39098;SDS011;24844;52.380;7.018;2022-08-21T06:00:00;10.73;;;7.38;;
39098;SDS011;24844;52.380;7.018;2022-08-21T06:02:26;9.45;;;6.80;;
39098;SDS011;24844;52.380;7.018;2022-08-21T06:04:52;11.88;;;7.22;;
39098;SDS011;24844;52.380;7.018;2022-08-21T06:07:17;11.38;;;7.20;;
39098;SDS011;24844;52.380;7.018;2022-08-21T06:09:43;15.50;;;6.85;;
39098;SDS011;24844;52.380;7.018;2022-08-21T06:12:10;9.95;;;7.10;;
39098;SDS011;24844;52.380;7.018;2022-08-21T06:14:38;14.15;;;7.35;;
39098;SDS011;24844;52.380;7.018;2022-08-21T06:17:05;8.10;;;6.50;;
39098;SDS011;24844;52.380;7.018;2022-08-21T06:19:32;16.77;;;8.00;;
39098;SDS011;24844;52.380;7.018;2022-08-21T06:21:57;10.43;;;7.05;;
39098;SDS011;24844;52.380;7.018;2022-08-21T06:24:23;10.15;;;7.07;;
39098;SDS011;24844;52.380;7.018;2022-08-21T06:26:49;10.38;;;6.65;;
39098;SDS011;24844;52.380;7.018;2022-08-21T06:29:15;11.32;;;7.53;;
39098;SDS011;24844;52.380;7.018;2022-08-21T06:31:41;8.35;;;5.88;;
39098;SDS011;24844;52.380;7.018;2022-08-21T06:34:07;12.20;;;6.53;;
39098;SDS011;24844;52.380;7.018;2022-08-21T06:36:33;11.02;;;7.07;;
39098;SDS011;24844;52.380;7.018;2022-08-21T06:38:59;13.95;;;7.10;;
39098;SDS011;24844;52.380;7.018;2022-08-21T06:41:25;8.70;;;6.40;;
39098;SDS011;24844;52.380;7.018;2022-08-21T06:43:50;8.68;;;6.00;;
39098;SDS011;24844;52.380;7.018;2022-08-21T06:46:16;9.70;;;5.95;;
39098;SDS011;24844;52.380;7.018;2022-08-21T06:48:41;9.98;;;5.60;;
39098;SDS011;24844;52.380;7.018;2022-08-21T06:51:07;6.97;;;5.18;;
39098;SDS011;24844;52.380;7.018;2022-08-21T06:53:32;8.07;;;5.78;;
39098;SDS011;24844;52.380;7.018;2022-08-21T06:55:58;10.57;;;5.53;;
39098;SDS011;24844;52.380;7.018;2022-08-21T06:58:24;12.32;;;5.80;;
39098;SDS011;24844;52.380;7.018;2022-08-21T07:00:50;8.90;;;5.70;;
39098;SDS011;24844;52.380;7.018;2022-08-21T07:03:20;10.70;;;5.40;;
39098;SDS011;24844;52.380;7.018;2022-08-21T07:05:52;10.57;;;5.13;;
39098;SDS011;24844;52.380;7.018;2022-08-21T07:08:19;7.60;;;4.75;;
39098;SDS011;24844;52.380;7.018;2022-08-21T07:10:45;8.55;;;4.20;;
39098;SDS011;24844;52.380;7.018;2022-08-21T07:13:12;10.60;;;4.70;;
39098;SDS011;24844;52.380;7.018;2022-08-21T07:15:37;8.10;;;4.20;;
39098;SDS011;24844;52.380;7.018;2022-08-21T07:18:03;9.15;;;4.18;;
39098;SDS011;24844;52.380;7.018;2022-08-21T07:20:29;7.53;;;3.83;;
39098;SDS011;24844;52.380;7.018;2022-08-21T07:23:01;7.88;;;3.88;;
39098;SDS011;24844;52.380;7.018;2022-08-21T07:25:29;5.15;;;2.97;;
39098;SDS011;24844;52.380;7.018;2022-08-21T07:27:55;7.97;;;3.15;;
39098;SDS011;24844;52.380;7.018;2022-08-21T07:30:21;5.70;;;2.40;;
39098;SDS011;24844;52.380;7.018;2022-08-21T07:32:47;9.20;;;2.60;;
39098;SDS011;24844;52.380;7.018;2022-08-21T07:35:14;8.38;;;2.80;;
39098;SDS011;24844;52.380;7.018;2022-08-21T07:37:40;8.85;;;2.97;;
39098;SDS011;24844;52.380;7.018;2022-08-21T07:40:06;8.35;;;2.80;;
39098;SDS011;24844;52.380;7.018;2022-08-21T07:42:32;5.07;;;2.28;;
39098;SDS011;24844;52.380;7.018;2022-08-21T07:44:58;5.65;;;2.38;;
39098;SDS011;24844;52.380;7.018;2022-08-21T07:47:23;5.57;;;2.10;;
39098;SDS011;24844;52.380;7.018;2022-08-21T07:49:49;9.98;;;2.15;;
39098;SDS011;24844;52.380;7.018;2022-08-21T07:52:15;8.10;;;2.30;;
39098;SDS011;24844;52.380;7.018;2022-08-21T07:54:41;6.75;;;2.03;;
39098;SDS011;24844;52.380;7.018;2022-08-21T07:57:07;4.57;;;1.83;;
39098;SDS011;24844;52.380;7.018;2022-08-21T07:59:33;4.88;;;2.10;;
39098;SDS011;24844;52.380;7.018;2022-08-21T08:02:00;7.88;;;1.80;;
39098;SDS011;24844;52.380;7.018;2022-08-21T08:04:26;5.40;;;1.90;;
39098;SDS011;24844;52.380;7.018;2022-08-21T08:06:52;5.57;;;1.83;;
39098;SDS011;24844;52.380;7.018;2022-08-21T08:09:18;5.55;;;2.10;;
39098;SDS011;24844;52.380;7.018;2022-08-21T08:11:44;4.60;;;1.80;;
39098;SDS011;24844;52.380;7.018;2022-08-21T08:14:10;5.45;;;1.63;;
39098;SDS011;24844;52.380;7.018;2022-08-21T08:16:36;4.57;;;1.63;;
39098;SDS011;24844;52.380;7.018;2022-08-21T08:19:02;4.93;;;2.13;;
39098;SDS011;24844;52.380;7.018;2022-08-21T08:21:28;8.52;;;2.00;;
39098;SDS011;24844;52.380;7.018;2022-08-21T08:23:53;6.10;;;2.10;;
39098;SDS011;24844;52.380;7.018;2022-08-21T08:26:19;6.03;;;1.90;;
39098;SDS011;24844;52.380;7.018;2022-08-21T08:28:45;6.05;;;2.10;;
39098;SDS011;24844;52.380;7.018;2022-08-21T08:31:12;4.57;;;1.98;;
39098;SDS011;24844;52.380;7.018;2022-08-21T08:33:39;6.50;;;2.13;;
39098;SDS011;24844;52.380;7.018;2022-08-21T08:36:05;3.30;;;1.58;;
39098;SDS011;24844;52.380;7.018;2022-08-21T08:38:36;8.02;;;2.08;;
39098;SDS011;24844;52.380;7.018;2022-08-21T08:41:08;4.60;;;1.75;;
39098;SDS011;24844;52.380;7.018;2022-08-21T08:43:38;6.50;;;2.20;;
39098;SDS011;24844;52.380;7.018;2022-08-21T08:46:17;5.93;;;1.83;;
39098;SDS011;24844;52.380;7.018;2022-08-21T08:48:57;5.63;;;2.20;;
39098;SDS011;24844;52.380;7.018;2022-08-21T08:54:15;6.18;;;2.33;;
39098;SDS011;24844;52.380;7.018;2022-08-21T08:56:45;6.32;;;2.47;;
39098;SDS011;24844;52.380;7.018;2022-08-21T08:59:16;3.85;;;1.90;;
39098;SDS011;24844;52.380;7.018;2022-08-21T09:01:47;5.70;;;2.35;;
39098;SDS011;24844;52.380;7.018;2022-08-21T09:04:18;6.55;;;2.55;;
39098;SDS011;24844;52.380;7.018;2022-08-21T09:06:57;5.72;;;2.17;;
39098;SDS011;24844;52.380;7.018;2022-08-21T09:12:09;4.75;;;2.00;;
39098;SDS011;24844;52.380;7.018;2022-08-21T09:14:45;8.35;;;2.00;;
39098;SDS011;24844;52.380;7.018;2022-08-21T09:19:50;7.15;;;2.25;;
39098;SDS011;24844;52.380;7.018;2022-08-21T09:30:02;6.35;;;1.80;;
39098;SDS011;24844;52.380;7.018;2022-08-21T09:32:31;3.38;;;1.48;;
39098;SDS011;24844;52.380;7.018;2022-08-21T09:35:09;6.15;;;1.58;;
39098;SDS011;24844;52.380;7.018;2022-08-21T09:37:46;4.05;;;1.40;;
39098;SDS011;24844;52.380;7.018;2022-08-21T09:40:38;4.03;;;1.35;;
39098;SDS011;24844;52.380;7.018;2022-08-21T09:45:36;3.83;;;1.35;;
39098;SDS011;24844;52.380;7.018;2022-08-21T09:48:23;4.93;;;1.38;;
39098;SDS011;24844;52.380;7.018;2022-08-21T09:50:51;4.73;;;1.40;;
39098;SDS011;24844;52.380;7.018;2022-08-21T09:55:50;4.97;;;1.50;;
39098;SDS011;24844;52.380;7.018;2022-08-21T09:58:40;4.22;;;1.20;;
39098;SDS011;24844;52.380;7.018;2022-08-21T10:01:14;4.55;;;1.35;;
39098;SDS011;24844;52.380;7.018;2022-08-21T10:03:41;3.10;;;1.48;;
39098;SDS011;24844;52.380;7.018;2022-08-21T10:06:07;4.32;;;1.52;;
39098;SDS011;24844;52.380;7.018;2022-08-21T10:08:36;6.72;;;2.03;;
39098;SDS011;24844;52.380;7.018;2022-08-21T10:11:07;4.88;;;1.20;;
39098;SDS011;24844;52.380;7.018;2022-08-21T10:13:49;5.85;;;1.70;;
39098;SDS011;24844;52.380;7.018;2022-08-21T10:16:38;5.05;;;1.90;;
39098;SDS011;24844;52.380;7.018;2022-08-21T10:19:26;6.85;;;1.70;;
39098;SDS011;24844;52.380;7.018;2022-08-21T10:22:00;6.20;;;2.08;;
39098;SDS011;24844;52.380;7.018;2022-08-21T10:25:05;4.13;;;1.70;;
39098;SDS011;24844;52.380;7.018;2022-08-21T10:30:32;4.72;;;1.75;;
39098;SDS011;24844;52.380;7.018;2022-08-21T10:35:56;5.05;;;1.77;;
39098;SDS011;24844;52.380;7.018;2022-08-21T10:41:15;4.53;;;1.50;;
39098;SDS011;24844;52.380;7.018;2022-08-21T10:44:08;5.53;;;1.98;;
39098;SDS011;24844;52.380;7.018;2022-08-21T10:52:15;4.88;;;1.75;;
39098;SDS011;24844;52.380;7.018;2022-08-21T10:57:16;5.43;;;1.70;;
39098;SDS011;24844;52.380;7.018;2022-08-21T11:00:05;5.20;;;1.50;;
39098;SDS011;24844;52.380;7.018;2022-08-21T11:02:40;5.65;;;1.55;;
39098;SDS011;24844;52.380;7.018;2022-08-21T11:05:14;4.00;;;1.42;;
39098;SDS011;24844;52.380;7.018;2022-08-21T11:07:58;4.88;;;1.80;;
39098;SDS011;24844;52.380;7.018;2022-08-21T11:15:50;3.38;;;1.40;;
39098;SDS011;24844;52.380;7.018;2022-08-21T11:18:28;5.72;;;1.95;;
39098;SDS011;24844;52.380;7.018;2022-08-21T11:23:33;6.57;;;1.83;;
39098;SDS011;24844;52.380;7.018;2022-08-21T11:26:05;4.32;;;1.67;;
39098;SDS011;24844;52.380;7.018;2022-08-21T11:28:36;5.68;;;2.08;;
39098;SDS011;24844;52.380;7.018;2022-08-21T11:33:49;5.05;;;1.60;;
39098;SDS011;24844;52.380;7.018;2022-08-21T11:36:30;4.80;;;1.40;;
39098;SDS011;24844;52.380;7.018;2022-08-21T11:39:22;4.47;;;1.30;;
39098;SDS011;24844;52.380;7.018;2022-08-21T11:42:00;4.93;;;1.70;;
39098;SDS011;24844;52.380;7.018;2022-08-21T11:44:37;5.35;;;1.65;;
39098;SDS011;24844;52.380;7.018;2022-08-21T11:47:13;5.00;;;1.58;;
39098;SDS011;24844;52.380;7.018;2022-08-21T11:52:25;5.00;;;1.58;;
39098;SDS011;24844;52.380;7.018;2022-08-21T11:55:03;4.50;;;1.48;;
39098;SDS011;24844;52.380;7.018;2022-08-21T11:57:43;5.65;;;1.70;;
39098;SDS011;24844;52.380;7.018;2022-08-21T12:00:29;3.63;;;1.23;;
39098;SDS011;24844;52.380;7.018;2022-08-21T12:03:06;6.85;;;1.55;;
39098;SDS011;24844;52.380;7.018;2022-08-21T12:05:39;6.47;;;1.42;;
39098;SDS011;24844;52.380;7.018;2022-08-21T12:10:39;5.75;;;1.40;;
39098;SDS011;24844;52.380;7.018;2022-08-21T12:13:23;4.93;;;1.58;;
39098;SDS011;24844;52.380;7.018;2022-08-21T12:15:51;3.28;;;1.50;;
39098;SDS011;24844;52.380;7.018;2022-08-21T12:18:30;6.43;;;1.80;;
39098;SDS011;24844;52.380;7.018;2022-08-21T12:23:48;5.85;;;1.60;;
39098;SDS011;24844;52.380;7.018;2022-08-21T12:26:18;3.92;;;1.10;;
39098;SDS011;24844;52.380;7.018;2022-08-21T12:28:50;5.15;;;1.70;;
39098;SDS011;24844;52.380;7.018;2022-08-21T12:31:27;5.25;;;1.40;;
39098;SDS011;24844;52.380;7.018;2022-08-21T12:34:00;4.93;;;1.33;;
39098;SDS011;24844;52.380;7.018;2022-08-21T12:36:41;3.25;;;1.10;;
39098;SDS011;24844;52.380;7.018;2022-08-21T12:39:17;5.78;;;1.40;;
39098;SDS011;24844;52.380;7.018;2022-08-21T12:41:59;5.78;;;1.55;;
39098;SDS011;24844;52.380;7.018;2022-08-21T12:44:42;5.22;;;1.30;;
39098;SDS011;24844;52.380;7.018;2022-08-21T12:47:26;4.80;;;1.60;;
39098;SDS011;24844;52.380;7.018;2022-08-21T12:50:01;5.20;;;1.30;;
39098;SDS011;24844;52.380;7.018;2022-08-21T12:52:33;5.90;;;1.25;;
39098;SDS011;24844;52.380;7.018;2022-08-21T12:55:02;4.43;;;1.38;;
39098;SDS011;24844;52.380;7.018;2022-08-21T12:57:29;7.50;;;1.60;;
39098;SDS011;24844;52.380;7.018;2022-08-21T12:59:56;4.70;;;1.20;;
39098;SDS011;24844;52.380;7.018;2022-08-21T13:02:25;3.65;;;1.08;;
39098;SDS011;24844;52.380;7.018;2022-08-21T13:04:54;7.95;;;1.30;;
39098;SDS011;24844;52.380;7.018;2022-08-21T13:07:29;7.78;;;1.25;;
39098;SDS011;24844;52.380;7.018;2022-08-21T13:10:43;3.92;;;1.15;;
39098;SDS011;24844;52.380;7.018;2022-08-21T13:12:48;3.47;;;1.02;;
39098;SDS011;24844;52.380;7.018;2022-08-21T13:15:21;4.68;;;1.30;;
39098;SDS011;24844;52.380;7.018;2022-08-21T13:17:50;4.35;;;1.27;;
39098;SDS011;24844;52.380;7.018;2022-08-21T13:20:22;5.22;;;1.17;;
39098;SDS011;24844;52.380;7.018;2022-08-21T13:22:49;4.75;;;1.60;;
39098;SDS011;24844;52.380;7.018;2022-08-21T13:25:16;5.43;;;1.30;;
39098;SDS011;24844;52.380;7.018;2022-08-21T13:27:45;5.78;;;1.30;;
39098;SDS011;24844;52.380;7.018;2022-08-21T13:30:31;6.70;;;1.35;;
39098;SDS011;24844;52.380;7.018;2022-08-21T13:32:58;5.35;;;1.55;;
39098;SDS011;24844;52.380;7.018;2022-08-21T13:37:52;6.93;;;1.33;;
39098;SDS011;24844;52.380;7.018;2022-08-21T13:40:20;4.38;;;1.30;;
39098;SDS011;24844;52.380;7.018;2022-08-21T13:42:52;5.72;;;1.50;;
39098;SDS011;24844;52.380;7.018;2022-08-21T13:45:27;4.30;;;1.67;;
39098;SDS011;24844;52.380;7.018;2022-08-21T13:47:57;6.37;;;1.40;;
39098;SDS011;24844;52.380;7.018;2022-08-21T13:50:25;6.80;;;1.60;;
39098;SDS011;24844;52.380;7.018;2022-08-21T13:52:56;4.70;;;1.38;;
39098;SDS011;24844;52.380;7.018;2022-08-21T13:55:33;2.53;;;0.90;;
39098;SDS011;24844;52.380;7.018;2022-08-21T13:58:06;7.15;;;1.50;;
39098;SDS011;24844;52.380;7.018;2022-08-21T14:00:35;4.00;;;1.20;;
39098;SDS011;24844;52.380;7.018;2022-08-21T14:06:17;4.85;;;1.40;;
39098;SDS011;24844;52.380;7.018;2022-08-21T14:08:53;6.05;;;1.60;;
39098;SDS011;24844;52.380;7.018;2022-08-21T14:11:32;4.85;;;1.30;;
39098;SDS011;24844;52.380;7.018;2022-08-21T14:14:01;8.38;;;1.67;;
39098;SDS011;24844;52.380;7.018;2022-08-21T14:16:46;4.45;;;1.10;;
39098;SDS011;24844;52.380;7.018;2022-08-21T14:21:43;6.05;;;1.23;;
39098;SDS011;24844;52.380;7.018;2022-08-21T14:24:11;7.70;;;1.40;;
39098;SDS011;24844;52.380;7.018;2022-08-21T14:26:49;4.68;;;1.30;;
39098;SDS011;24844;52.380;7.018;2022-08-21T14:29:18;5.95;;;1.40;;
39098;SDS011;24844;52.380;7.018;2022-08-21T14:31:52;4.60;;;1.20;;
39098;SDS011;24844;52.380;7.018;2022-08-21T14:34:20;5.05;;;1.30;;
39098;SDS011;24844;52.380;7.018;2022-08-21T14:36:47;5.85;;;1.60;;
39098;SDS011;24844;52.380;7.018;2022-08-21T14:39:13;7.05;;;1.35;;
39098;SDS011;24844;52.380;7.018;2022-08-21T14:41:39;3.05;;;1.00;;
39098;SDS011;24844;52.380;7.018;2022-08-21T14:44:07;4.85;;;1.60;;
39098;SDS011;24844;52.380;7.018;2022-08-21T14:46:33;3.35;;;1.10;;
39098;SDS011;24844;52.380;7.018;2022-08-21T14:49:00;4.80;;;1.38;;
39098;SDS011;24844;52.380;7.018;2022-08-21T14:51:26;3.42;;;1.15;;
39098;SDS011;24844;52.380;7.018;2022-08-21T14:53:52;3.28;;;0.93;;
39098;SDS011;24844;52.380;7.018;2022-08-21T14:56:18;4.95;;;1.25;;
39098;SDS011;24844;52.380;7.018;2022-08-21T14:58:45;6.60;;;1.60;;
39098;SDS011;24844;52.380;7.018;2022-08-21T15:01:16;4.57;;;1.10;;
39098;SDS011;24844;52.380;7.018;2022-08-21T15:03:43;4.38;;;1.20;;
39098;SDS011;24844;52.380;7.018;2022-08-21T15:06:09;4.35;;;1.02;;
39098;SDS011;24844;52.380;7.018;2022-08-21T15:08:35;5.05;;;1.27;;
39098;SDS011;24844;52.380;7.018;2022-08-21T15:11:02;4.60;;;1.10;;
39098;SDS011;24844;52.380;7.018;2022-08-21T15:13:28;4.35;;;1.10;;
39098;SDS011;24844;52.380;7.018;2022-08-21T15:15:55;4.53;;;1.08;;
39098;SDS011;24844;52.380;7.018;2022-08-21T15:18:22;3.80;;;1.20;;
39098;SDS011;24844;52.380;7.018;2022-08-21T15:20:49;5.88;;;1.40;;
39098;SDS011;24844;52.380;7.018;2022-08-21T15:23:15;5.50;;;1.52;;
39098;SDS011;24844;52.380;7.018;2022-08-21T15:25:42;5.10;;;1.25;;
39098;SDS011;24844;52.380;7.018;2022-08-21T15:28:10;20.75;;;6.82;;
39098;SDS011;24844;52.380;7.018;2022-08-21T15:30:36;7.57;;;2.30;;
39098;SDS011;24844;52.380;7.018;2022-08-21T15:33:04;5.75;;;1.48;;
39098;SDS011;24844;52.380;7.018;2022-08-21T15:35:30;5.30;;;1.40;;
39098;SDS011;24844;52.380;7.018;2022-08-21T15:37:55;9.05;;;2.20;;
39098;SDS011;24844;52.380;7.018;2022-08-21T15:40:21;4.68;;;1.40;;
39098;SDS011;24844;52.380;7.018;2022-08-21T15:42:47;4.50;;;1.40;;
39098;SDS011;24844;52.380;7.018;2022-08-21T15:45:13;5.80;;;1.52;;
39098;SDS011;24844;52.380;7.018;2022-08-21T15:47:42;15.38;;;5.60;;
39098;SDS011;24844;52.380;7.018;2022-08-21T15:50:09;25.85;;;10.77;;
39098;SDS011;24844;52.380;7.018;2022-08-21T15:52:36;6.10;;;2.70;;
39098;SDS011;24844;52.380;7.018;2022-08-21T15:55:02;7.35;;;2.67;;
39098;SDS011;24844;52.380;7.018;2022-08-21T15:57:29;6.45;;;1.75;;
39098;SDS011;24844;52.380;7.018;2022-08-21T15:59:58;5.40;;;1.45;;
39098;SDS011;24844;52.380;7.018;2022-08-21T16:02:34;4.18;;;1.50;;
39098;SDS011;24844;52.380;7.018;2022-08-21T16:05:01;3.22;;;1.38;;
39098;SDS011;24844;52.380;7.018;2022-08-21T16:07:26;5.78;;;1.20;;
39098;SDS011;24844;52.380;7.018;2022-08-21T16:09:52;10.75;;;1.98;;